sensor_id;sensor_type;location;lat;lon;timestamp;pressure;altitude;pressure_sealevel;temperature;humidity
37486;BME280;23341;50.296;18.960;2023-02-12T00:01:30;113062.75;;;-144.43;100.00
37486;BME280;23341;50.296;18.960;2023-02-12T00:06:37;113062.75;;;-144.43;100.00
37486;BME280;23341;50.296;18.960;2023-02-12T00:11:40;113062.75;;;-144.43;100.00
37486;BME280;23341;50.296;18.960;2023-02-12T00:16:44;113062.75;;;-144.43;100.00
37486;BME280;23341;50.296;18.960;2023-02-12T00:21:49;113062.75;;;-144.43;100.00
37486;BME280;23341;50.296;18.960;2023-02-12T00:26:53;113062.75;;;-144.43;100.00
37486;BME280;23341;50.296;18.960;2023-02-12T00:31:57;113062.75;;;-144.43;100.00
37486;BME280;23341;50.296;18.960;2023-02-12T00:37:02;113062.75;;;-144.43;100.00
37486;BME280;23341;50.296;18.960;2023-02-12T00:42:06;113062.75;;;-144.43;100.00
37486;BME280;23341;50.296;18.960;2023-02-12T00:47:10;113062.75;;;-144.43;100.00
37486;BME280;23341;50.296;18.960;2023-02-12T00:52:15;113062.75;;;-144.43;100.00
37486;BME280;23341;50.296;18.960;2023-02-12T00:57:19;113062.75;;;-144.43;100.00
37486;BME280;23341;50.296;18.960;2023-02-12T01:02:24;113062.75;;;-144.43;100.00
37486;BME280;23341;50.296;18.960;2023-02-12T01:07:29;113062.75;;;-144.43;100.00
37486;BME280;23341;50.296;18.960;2023-02-12T01:12:33;113062.75;;;-144.43;100.00
37486;BME280;23341;50.296;18.960;2023-02-12T01:17:37;113062.75;;;-144.43;100.00
37486;BME280;23341;50.296;18.960;2023-02-12T01:22:43;113060.72;;;-144.43;100.00
37486;BME280;23341;50.296;18.960;2023-02-12T01:27:47;113060.72;;;-144.43;100.00
37486;BME280;23341;50.296;18.960;2023-02-12T01:32:51;113060.72;;;-144.43;100.00
37486;BME280;23341;50.296;18.960;2023-02-12T01:37:58;113060.72;;;-144.43;100.00
37486;BME280;23341;50.296;18.960;2023-02-12T01:43:02;113060.72;;;-144.43;100.00
37486;BME280;23341;50.296;18.960;2023-02-12T01:48:06;112800.81;;;-144.43;100.00
37486;BME280;23341;50.296;18.960;2023-02-12T01:53:12;113060.72;;;-144.43;100.00
37486;BME280;23341;50.296;18.960;2023-02-12T01:58:23;113060.72;;;-144.43;100.00
37486;BME280;23341;50.296;18.960;2023-02-12T02:03:27;113060.72;;;-144.43;100.00
37486;BME280;23341;50.296;18.960;2023-02-12T02:08:33;113060.72;;;-144.43;100.00
37486;BME280;23341;50.296;18.960;2023-02-12T02:13:36;112800.81;;;-144.43;100.00
37486;BME280;23341;50.296;18.960;2023-02-12T02:19:02;112281.03;;;-144.43;100.00
37486;BME280;23341;50.296;18.960;2023-02-12T02:24:33;112021.19;;;-144.43;100.00
37486;BME280;23341;50.296;18.960;2023-02-12T02:30:26;112021.19;;;-144.43;100.00
37486;BME280;23341;50.296;18.960;2023-02-12T02:35:38;111761.34;;;-144.43;100.00
37486;BME280;23341;50.296;18.960;2023-02-12T02:40:49;111501.50;;;-144.43;100.00
37486;BME280;23341;50.296;18.960;2023-02-12T02:45:58;111241.69;;;-144.43;100.00
37486;BME280;23341;50.296;18.960;2023-02-12T02:51:08;110981.91;;;-144.43;100.00
37486;BME280;23341;50.296;18.960;2023-02-12T02:56:14;110722.13;;;-144.43;100.00
37486;BME280;23341;50.296;18.960;2023-02-12T03:07:10;110722.13;;;-144.43;100.00
37486;BME280;23341;50.296;18.960;2023-02-12T03:12:19;110462.38;;;-144.43;100.00
37486;BME280;23341;50.296;18.960;2023-02-12T03:17:29;110462.38;;;-144.43;100.00
37486;BME280;23341;50.296;18.960;2023-02-12T03:22:38;110462.38;;;-144.43;100.00
37486;BME280;23341;50.296;18.960;2023-02-12T03:27:46;110202.63;;;-144.43;100.00
37486;BME280;23341;50.296;18.960;2023-02-12T03:32:57;109942.91;;;-144.43;100.00
37486;BME280;23341;50.296;18.960;2023-02-12T03:38:13;109423.50;;;-144.43;100.00
37486;BME280;23341;50.296;18.960;2023-02-12T03:43:23;109942.91;;;-144.43;100.00
37486;BME280;23341;50.296;18.960;2023-02-12T03:48:33;109683.19;;;-144.43;100.00
37486;BME280;23341;50.296;18.960;2023-02-12T03:53:40;109423.50;;;-144.43;100.00
37486;BME280;23341;50.296;18.960;2023-02-12T03:58:45;108904.16;;;-144.43;100.00
37486;BME280;23341;50.296;18.960;2023-02-12T04:03:49;108904.16;;;-144.43;100.00
37486;BME280;23341;50.296;18.960;2023-02-12T04:08:56;108904.16;;;-144.43;100.00
37486;BME280;23341;50.296;18.960;2023-02-12T04:14:13;108644.53;;;-144.43;100.00
37486;BME280;23341;50.296;18.960;2023-02-12T04:19:23;108644.53;;;-144.43;100.00
37486;BME280;23341;50.296;18.960;2023-02-12T04:24:39;108384.91;;;-144.43;100.00
37486;BME280;23341;50.296;18.960;2023-02-12T04:29:47;108125.28;;;-144.43;100.00
37486;BME280;23341;50.296;18.960;2023-02-12T04:34:57;107865.69;;;-144.43;100.00
37486;BME280;23341;50.296;18.960;2023-02-12T04:40:04;107606.13;;;-144.43;100.00
37486;BME280;23341;50.296;18.960;2023-02-12T04:45:09;107606.13;;;-144.43;100.00
37486;BME280;23341;50.296;18.960;2023-02-12T04:50:13;107087.03;;;-144.43;100.00
37486;BME280;23341;50.296;18.960;2023-02-12T04:55:18;107087.03;;;-144.43;100.00
37486;BME280;23341;50.296;18.960;2023-02-12T05:00:22;107087.03;;;-144.43;100.00
37486;BME280;23341;50.296;18.960;2023-02-12T05:05:26;107346.56;;;-144.43;100.00
37486;BME280;23341;50.296;18.960;2023-02-12T05:10:31;107087.03;;;-144.43;100.00
37486;BME280;23341;50.296;18.960;2023-02-12T05:15:37;106567.97;;;-144.43;100.00
37486;BME280;23341;50.296;18.960;2023-02-12T05:20:41;106827.50;;;-144.43;100.00
37486;BME280;23341;50.296;18.960;2023-02-12T05:25:46;106567.97;;;-144.43;100.00
37486;BME280;23341;50.296;18.960;2023-02-12T05:30:50;106567.97;;;-144.43;100.00
37486;BME280;23341;50.296;18.960;2023-02-12T05:35:54;107865.69;;;-144.43;100.00
37486;BME280;23341;50.296;18.960;2023-02-12T05:41:04;107865.69;;;-144.43;100.00
37486;BME280;23341;50.296;18.960;2023-02-12T05:46:09;107606.13;;;-144.43;100.00
37486;BME280;23341;50.296;18.960;2023-02-12T05:51:15;106827.50;;;-144.43;100.00
37486;BME280;23341;50.296;18.960;2023-02-12T05:56:23;106567.97;;;-144.43;100.00
37486;BME280;23341;50.296;18.960;2023-02-12T06:01:30;106308.50;;;-144.43;100.00
37486;BME280;23341;50.296;18.960;2023-02-12T06:06:34;106308.50;;;-144.43;100.00
37486;BME280;23341;50.296;18.960;2023-02-12T06:11:40;106049.00;;;-144.43;100.00
37486;BME280;23341;50.296;18.960;2023-02-12T06:16:45;106049.00;;;-144.43;100.00
37486;BME280;23341;50.296;18.960;2023-02-12T06:21:49;105789.56;;;-144.43;100.00
37486;BME280;23341;50.296;18.960;2023-02-12T06:26:54;105011.28;;;-144.43;100.00
37486;BME280;23341;50.296;18.960;2023-02-12T06:31:58;104751.88;;;-144.43;100.00
37486;BME280;23341;50.296;18.960;2023-02-12T06:37:02;105011.28;;;-144.43;100.00
37486;BME280;23341;50.296;18.960;2023-02-12T06:42:07;105789.56;;;-144.43;100.00
37486;BME280;23341;50.296;18.960;2023-02-12T06:47:11;103195.84;;;-144.43;100.00
37486;BME280;23341;50.296;18.960;2023-02-12T06:52:15;102158.84;;;-144.43;100.00
37486;BME280;23341;50.296;18.960;2023-02-12T06:57:20;101640.44;;;-144.43;100.00
37486;BME280;23341;50.296;18.960;2023-02-12T07:02:24;101899.63;;;-144.43;100.00
37486;BME280;23341;50.296;18.960;2023-02-12T07:07:28;101640.44;;;-144.43;100.00
37486;BME280;23341;50.296;18.960;2023-02-12T07:12:33;100085.59;;;-144.43;100.00
37486;BME280;23341;50.296;18.960;2023-02-12T07:17:37;99826.53;;;-144.43;100.00
37486;BME280;23341;50.296;18.960;2023-02-12T07:22:41;99567.47;;;-144.43;100.00
37486;BME280;23341;50.296;18.960;2023-02-12T07:27:46;99049.38;;;-144.43;89.91
37486;BME280;23341;50.296;18.960;2023-02-12T07:32:50;99049.38;;;-144.43;77.39
37486;BME280;23341;50.296;18.960;2023-02-12T07:37:53;95165.91;;;-144.43;76.14
37486;BME280;23341;50.296;18.960;2023-02-12T07:42:58;91803.25;;;-144.43;79.89
37486;BME280;23341;50.296;18.960;2023-02-12T07:48:03;91027.66;;;-144.43;76.70
37486;BME280;23341;50.296;18.960;2023-02-12T07:53:07;86377.19;;;-144.43;81.47
37486;BME280;23341;50.296;18.960;2023-02-12T07:58:12;84828.25;;;-144.43;84.83
37486;BME280;23341;50.296;18.960;2023-02-12T08:03:16;82763.88;;;-144.43;88.93
37486;BME280;23341;50.296;18.960;2023-02-12T08:08:20;82247.97;;;-144.43;90.39
37486;BME280;23341;50.296;18.960;2023-02-12T08:13:26;80958.44;;;-144.43;93.09
37486;BME280;23341;50.296;18.960;2023-02-12T08:18:31;79411.56;;;-144.43;97.29
37486;BME280;23341;50.296;18.960;2023-02-12T08:23:35;80184.91;;;-144.43;95.07
37486;BME280;23341;50.296;18.960;2023-02-12T08:28:42;81474.19;;;-144.43;94.79
37486;BME280;23341;50.296;18.960;2023-02-12T08:33:46;81990.03;;;-144.43;94.13
37486;BME280;23341;50.296;18.960;2023-02-12T08:38:51;81474.19;;;-144.43;92.08
37486;BME280;23341;50.296;18.960;2023-02-12T08:43:59;80700.59;;;-144.43;92.60
37486;BME280;23341;50.296;18.960;2023-02-12T08:49:05;78638.34;;;-144.43;94.48
37486;BME280;23341;50.296;18.960;2023-02-12T08:54:12;78896.06;;;-144.43;94.73
37486;BME280;23341;50.296;18.960;2023-02-12T08:59:18;79669.34;;;-144.43;95.18
37486;BME280;23341;50.296;18.960;2023-02-12T09:04:23;79927.13;;;-144.43;95.09
37486;BME280;23341;50.296;18.960;2023-02-12T09:09:27;79669.34;;;-144.43;94.41
37486;BME280;23341;50.296;18.960;2023-02-12T09:14:32;79411.56;;;-144.43;95.11
37486;BME280;23341;50.296;18.960;2023-02-12T09:19:36;79153.81;;;-144.43;93.28
37486;BME280;23341;50.296;18.960;2023-02-12T09:24:40;80184.91;;;-144.43;92.34
37486;BME280;23341;50.296;18.960;2023-02-12T09:29:46;79153.81;;;-144.43;93.03
37486;BME280;23341;50.296;18.960;2023-02-12T09:34:50;80700.59;;;-144.43;91.67
37486;BME280;23341;50.296;18.960;2023-02-12T09:39:53;81990.03;;;-144.43;88.69
37486;BME280;23341;50.296;18.960;2023-02-12T09:45:05;80700.59;;;-144.43;87.71
37486;BME280;23341;50.296;18.960;2023-02-12T09:50:26;84053.97;;;-144.43;85.39
37486;BME280;23341;50.296;18.960;2023-02-12T09:55:34;83537.88;;;-144.43;81.04
37486;BME280;23341;50.296;18.960;2023-02-12T10:00:40;83537.88;;;-144.43;81.37
37486;BME280;23341;50.296;18.960;2023-02-12T10:05:47;85344.50;;;-144.43;79.79
37486;BME280;23341;50.296;18.960;2023-02-12T10:10:56;86893.66;;;-144.43;74.54
37486;BME280;23341;50.296;18.960;2023-02-12T10:16:09;85086.34;;;-144.43;63.88
37486;BME280;23341;50.296;18.960;2023-02-12T10:21:31;85602.66;;;-144.43;62.55
37486;BME280;23341;50.296;18.960;2023-02-12T10:26:40;85602.66;;;-144.43;61.86
37486;BME280;23341;50.296;18.960;2023-02-12T10:31:50;85602.66;;;-144.43;61.45
37486;BME280;23341;50.296;18.960;2023-02-12T10:36:58;86119.00;;;-144.43;61.03
37486;BME280;23341;50.296;18.960;2023-02-12T10:42:10;86377.19;;;-144.43;59.38
37486;BME280;23341;50.296;18.960;2023-02-12T10:47:21;85860.81;;;-144.43;58.92
37486;BME280;23341;50.296;18.960;2023-02-12T10:52:34;86635.41;;;-144.43;58.71
37486;BME280;23341;50.296;18.960;2023-02-12T10:57:42;86119.00;;;-144.43;58.61
37486;BME280;23341;50.296;18.960;2023-02-12T11:02:59;85602.66;;;-144.43;57.46
37486;BME280;23341;50.296;18.960;2023-02-12T11:08:04;84828.25;;;-144.43;58.02
37486;BME280;23341;50.296;18.960;2023-02-12T11:13:21;83537.88;;;-144.43;60.60
37486;BME280;23341;50.296;18.960;2023-02-12T11:18:29;84053.97;;;-144.43;60.86
37486;BME280;23341;50.296;18.960;2023-02-12T11:23:35;83795.94;;;-144.43;62.70
37486;BME280;23341;50.296;18.960;2023-02-12T11:28:52;84053.97;;;-144.43;62.75
37486;BME280;23341;50.296;18.960;2023-02-12T11:34:16;84053.97;;;-144.43;60.70
37486;BME280;23341;50.296;18.960;2023-02-12T11:39:25;84570.13;;;-144.43;61.49
37486;BME280;23341;50.296;18.960;2023-02-12T11:44:31;84828.25;;;-144.43;61.35
37486;BME280;23341;50.296;18.960;2023-02-12T11:49:41;85602.66;;;-144.43;61.81
37486;BME280;23341;50.296;18.960;2023-02-12T11:54:47;86893.66;;;-144.43;58.12
37486;BME280;23341;50.296;18.960;2023-02-12T11:59:53;85860.81;;;-144.43;59.73
37486;BME280;23341;50.296;18.960;2023-02-12T12:05:08;82763.88;;;-144.43;63.56
37486;BME280;23341;50.296;18.960;2023-02-12T12:10:18;81732.09;;;-144.43;66.88
37486;BME280;23341;50.296;18.960;2023-02-12T12:15:25;82505.91;;;-144.43;66.27
37486;BME280;23341;50.296;18.960;2023-02-12T12:20:53;85086.34;;;-144.43;63.37
37486;BME280;23341;50.296;18.960;2023-02-12T12:26:02;86635.41;;;-144.43;60.56
37486;BME280;23341;50.296;18.960;2023-02-12T12:31:13;87668.47;;;-144.43;58.90
37486;BME280;23341;50.296;18.960;2023-02-12T12:36:46;85602.66;;;-144.43;62.46
37486;BME280;23341;50.296;18.960;2023-02-12T12:47:43;81474.19;;;-144.43;69.59
37486;BME280;23341;50.296;18.960;2023-02-12T12:53:02;80700.59;;;-144.43;71.82
37486;BME280;23341;50.296;18.960;2023-02-12T12:58:14;80442.75;;;-144.43;72.36
37486;BME280;23341;50.296;18.960;2023-02-12T13:03:59;80442.75;;;-144.43;73.20
37486;BME280;23341;50.296;18.960;2023-02-12T13:09:25;80442.75;;;-144.43;72.91
37486;BME280;23341;50.296;18.960;2023-02-12T13:14:40;80442.75;;;-144.43;74.23
37486;BME280;23341;50.296;18.960;2023-02-12T13:19:57;80700.59;;;-144.43;74.61
37486;BME280;23341;50.296;18.960;2023-02-12T13:25:13;80958.44;;;-144.43;74.43
37486;BME280;23341;50.296;18.960;2023-02-12T13:30:24;82247.97;;;-144.43;74.04
37486;BME280;23341;50.296;18.960;2023-02-12T13:35:35;82505.91;;;-144.43;72.19
37486;BME280;23341;50.296;18.960;2023-02-12T13:40:42;81990.03;;;-144.43;72.91
37486;BME280;23341;50.296;18.960;2023-02-12T13:45:51;82247.97;;;-144.43;72.99
37486;BME280;23341;50.296;18.960;2023-02-12T13:51:03;81990.03;;;-144.43;72.46
37486;BME280;23341;50.296;18.960;2023-02-12T13:56:22;82247.97;;;-144.43;73.49
37486;BME280;23341;50.296;18.960;2023-02-12T14:01:41;83795.94;;;-144.43;73.27
37486;BME280;23341;50.296;18.960;2023-02-12T14:06:53;84053.97;;;-144.43;71.27
37486;BME280;23341;50.296;18.960;2023-02-12T14:12:00;82247.97;;;-144.43;73.99
37486;BME280;23341;50.296;18.960;2023-02-12T14:23:21;81990.03;;;-144.43;72.64
37486;BME280;23341;50.296;18.960;2023-02-12T14:28:31;81474.19;;;-144.43;72.11
37486;BME280;23341;50.296;18.960;2023-02-12T14:33:36;81732.09;;;-144.43;72.53
37486;BME280;23341;50.296;18.960;2023-02-12T14:39:00;80442.75;;;-144.43;75.64
37486;BME280;23341;50.296;18.960;2023-02-12T14:49:48;80700.59;;;-144.43;76.61
37486;BME280;23341;50.296;18.960;2023-02-12T14:54:55;81216.31;;;-144.43;76.31
37486;BME280;23341;50.296;18.960;2023-02-12T15:00:02;80700.59;;;-144.43;76.36
37486;BME280;23341;50.296;18.960;2023-02-12T15:05:15;80184.91;;;-144.43;76.98
37486;BME280;23341;50.296;18.960;2023-02-12T15:10:23;79669.34;;;-144.43;78.27
37486;BME280;23341;50.296;18.960;2023-02-12T15:15:32;79669.34;;;-144.43;79.24
37486;BME280;23341;50.296;18.960;2023-02-12T15:20:43;79927.13;;;-144.43;79.99
37486;BME280;23341;50.296;18.960;2023-02-12T15:25:49;79153.81;;;-144.43;82.39
37486;BME280;23341;50.296;18.960;2023-02-12T15:30:55;79669.34;;;-144.43;81.70
37486;BME280;23341;50.296;18.960;2023-02-12T15:36:01;79411.56;;;-144.43;82.13
37486;BME280;23341;50.296;18.960;2023-02-12T15:41:07;79153.81;;;-144.43;83.17
37486;BME280;23341;50.296;18.960;2023-02-12T15:46:16;78896.06;;;-144.43;84.60
37486;BME280;23341;50.296;18.960;2023-02-12T15:51:24;78380.63;;;-144.43;86.49
37486;BME280;23341;50.296;18.960;2023-02-12T15:56:30;78380.63;;;-144.43;88.54
37486;BME280;23341;50.296;18.960;2023-02-12T16:01:35;77607.63;;;-144.43;90.13
37486;BME280;23341;50.296;18.960;2023-02-12T16:06:41;77349.97;;;-144.43;91.16
37486;BME280;23341;50.296;18.960;2023-02-12T16:11:46;77349.97;;;-144.43;91.52
37486;BME280;23341;50.296;18.960;2023-02-12T16:16:52;77092.34;;;-144.43;92.48
37486;BME280;23341;50.296;18.960;2023-02-12T16:22:06;76577.16;;;-144.43;92.91
37486;BME280;23341;50.296;18.960;2023-02-12T16:27:17;76319.59;;;-144.43;93.39
37486;BME280;23341;50.296;18.960;2023-02-12T16:32:33;75289.47;;;-144.43;100.00
37486;BME280;23341;50.296;18.960;2023-02-12T16:37:45;75289.47;;;-144.43;100.00
37486;BME280;23341;50.296;18.960;2023-02-12T16:43:23;75804.50;;;-144.43;100.00
37486;BME280;23341;50.296;18.960;2023-02-12T16:48:27;75289.47;;;-144.43;100.00
37486;BME280;23341;50.296;18.960;2023-02-12T16:53:36;75804.50;;;-144.43;100.00
37486;BME280;23341;50.296;18.960;2023-02-12T16:58:46;76062.03;;;-144.43;100.00
37486;BME280;23341;50.296;18.960;2023-02-12T17:03:51;75804.50;;;-144.43;100.00
37486;BME280;23341;50.296;18.960;2023-02-12T17:08:57;76062.03;;;-144.43;100.00
37486;BME280;23341;50.296;18.960;2023-02-12T17:14:02;76577.16;;;-144.43;100.00
37486;BME280;23341;50.296;18.960;2023-02-12T17:19:05;77092.34;;;-144.43;100.00
37486;BME280;23341;50.296;18.960;2023-02-12T17:24:15;77349.97;;;-144.43;100.00
37486;BME280;23341;50.296;18.960;2023-02-12T17:29:22;77349.97;;;-144.43;100.00
37486;BME280;23341;50.296;18.960;2023-02-12T17:34:27;77865.28;;;-144.43;100.00
37486;BME280;23341;50.296;18.960;2023-02-12T17:39:42;78380.63;;;-144.43;100.00
37486;BME280;23341;50.296;18.960;2023-02-12T17:44:46;77865.28;;;-144.43;100.00
37486;BME280;23341;50.296;18.960;2023-02-12T17:49:50;78896.06;;;-144.43;100.00
37486;BME280;23341;50.296;18.960;2023-02-12T17:54:55;78896.06;;;-144.43;100.00
37486;BME280;23341;50.296;18.960;2023-02-12T17:59:59;78380.63;;;-144.43;100.00
37486;BME280;23341;50.296;18.960;2023-02-12T18:05:11;78122.94;;;-144.43;100.00
37486;BME280;23341;50.296;18.960;2023-02-12T18:10:17;78380.63;;;-144.43;100.00
37486;BME280;23341;50.296;18.960;2023-02-12T18:15:21;78380.63;;;-144.43;100.00
37486;BME280;23341;50.296;18.960;2023-02-12T18:20:25;77865.28;;;-144.43;100.00
37486;BME280;23341;50.296;18.960;2023-02-12T18:25:30;78380.63;;;-144.43;100.00
37486;BME280;23341;50.296;18.960;2023-02-12T18:30:34;78380.63;;;-144.43;100.00
37486;BME280;23341;50.296;18.960;2023-02-12T18:35:38;78380.63;;;-144.43;100.00
37486;BME280;23341;50.296;18.960;2023-02-12T18:40:44;78896.06;;;-144.43;100.00
37486;BME280;23341;50.296;18.960;2023-02-12T18:45:48;78638.34;;;-144.43;100.00
37486;BME280;23341;50.296;18.960;2023-02-12T18:50:52;78122.94;;;-144.43;100.00
37486;BME280;23341;50.296;18.960;2023-02-12T18:56:02;78380.63;;;-144.43;100.00
37486;BME280;23341;50.296;18.960;2023-02-12T19:01:13;79411.56;;;-144.43;100.00
37486;BME280;23341;50.296;18.960;2023-02-12T19:06:17;79153.81;;;-144.43;100.00
37486;BME280;23341;50.296;18.960;2023-02-12T19:11:22;79153.81;;;-144.43;100.00
37486;BME280;23341;50.296;18.960;2023-02-12T19:16:27;79411.56;;;-144.43;100.00
37486;BME280;23341;50.296;18.960;2023-02-12T19:21:31;81990.03;;;-144.43;100.00
37486;BME280;23341;50.296;18.960;2023-02-12T19:26:36;83537.88;;;-144.43;100.00
37486;BME280;23341;50.296;18.960;2023-02-12T19:31:43;81732.09;;;-144.43;100.00
37486;BME280;23341;50.296;18.960;2023-02-12T19:36:48;80184.91;;;-144.43;100.00
37486;BME280;23341;50.296;18.960;2023-02-12T19:41:53;79669.34;;;-144.43;100.00
37486;BME280;23341;50.296;18.960;2023-02-12T19:46:57;81474.19;;;-144.43;100.00
37486;BME280;23341;50.296;18.960;2023-02-12T19:52:01;81990.03;;;-144.43;100.00
37486;BME280;23341;50.296;18.960;2023-02-12T19:57:06;82247.97;;;-144.43;100.00
37486;BME280;23341;50.296;18.960;2023-02-12T20:02:15;82763.88;;;-144.43;100.00
37486;BME280;23341;50.296;18.960;2023-02-12T20:07:19;83021.88;;;-144.43;100.00
37486;BME280;23341;50.296;18.960;2023-02-12T20:12:24;82763.88;;;-144.43;100.00
37486;BME280;23341;50.296;18.960;2023-02-12T20:17:28;82505.91;;;-144.43;100.00
37486;BME280;23341;50.296;18.960;2023-02-12T20:22:33;81990.03;;;-144.43;100.00
37486;BME280;23341;50.296;18.960;2023-02-12T20:27:39;81732.09;;;-144.43;100.00
37486;BME280;23341;50.296;18.960;2023-02-12T20:32:43;81474.19;;;-144.43;100.00
37486;BME280;23341;50.296;18.960;2023-02-12T20:37:47;81216.31;;;-144.43;100.00
37486;BME280;23341;50.296;18.960;2023-02-12T20:42:52;81216.31;;;-144.43;100.00
37486;BME280;23341;50.296;18.960;2023-02-12T20:47:56;81990.03;;;-144.43;100.00
37486;BME280;23341;50.296;18.960;2023-02-12T20:53:00;82505.91;;;-144.43;100.00
37486;BME280;23341;50.296;18.960;2023-02-12T20:58:06;83537.88;;;-144.43;100.00
37486;BME280;23341;50.296;18.960;2023-02-12T21:03:09;84312.03;;;-144.43;100.00
37486;BME280;23341;50.296;18.960;2023-02-12T21:08:13;85086.34;;;-144.43;100.00
37486;BME280;23341;50.296;18.960;2023-02-12T21:13:18;86119.00;;;-144.43;100.00
37486;BME280;23341;50.296;18.960;2023-02-12T21:18:22;86377.19;;;-144.43;100.00
37486;BME280;23341;50.296;18.960;2023-02-12T21:23:28;87151.91;;;-144.43;100.00
37486;BME280;23341;50.296;18.960;2023-02-12T21:28:34;85860.81;;;-144.43;100.00
37486;BME280;23341;50.296;18.960;2023-02-12T21:33:39;86119.00;;;-144.43;100.00
37486;BME280;23341;50.296;18.960;2023-02-12T21:38:45;86893.66;;;-144.43;100.00
37486;BME280;23341;50.296;18.960;2023-02-12T21:43:55;86635.41;;;-144.43;100.00
37486;BME280;23341;50.296;18.960;2023-02-12T21:48:59;87410.16;;;-144.43;100.00
37486;BME280;23341;50.296;18.960;2023-02-12T21:54:05;87668.47;;;-144.43;100.00
37486;BME280;23341;50.296;18.960;2023-02-12T21:59:11;88185.06;;;-144.43;100.00
37486;BME280;23341;50.296;18.960;2023-02-12T22:04:16;87668.47;;;-144.43;100.00
37486;BME280;23341;50.296;18.960;2023-02-12T22:09:21;87926.75;;;-144.43;100.00
37486;BME280;23341;50.296;18.960;2023-02-12T22:14:26;87410.16;;;-144.43;100.00
37486;BME280;23341;50.296;18.960;2023-02-12T22:19:30;87926.75;;;-144.43;100.00
37486;BME280;23341;50.296;18.960;2023-02-12T22:24:35;88701.75;;;-144.43;100.00
37486;BME280;23341;50.296;18.960;2023-02-12T22:29:41;89476.91;;;-144.43;100.00
37486;BME280;23341;50.296;18.960;2023-02-12T22:34:44;89218.50;;;-144.43;100.00
37486;BME280;23341;50.296;18.960;2023-02-12T22:39:48;90252.22;;;-144.43;100.00
37486;BME280;23341;50.296;18.960;2023-02-12T22:44:53;89993.75;;;-144.43;100.00
37486;BME280;23341;50.296;18.960;2023-02-12T22:49:57;89218.50;;;-144.43;100.00
37486;BME280;23341;50.296;18.960;2023-02-12T22:55:01;88701.75;;;-144.43;100.00
37486;BME280;23341;50.296;18.960;2023-02-12T23:00:08;88443.41;;;-144.43;100.00
37486;BME280;23341;50.296;18.960;2023-02-12T23:05:12;89476.91;;;-144.43;100.00
37486;BME280;23341;50.296;18.960;2023-02-12T23:10:16;89218.50;;;-144.43;100.00
37486;BME280;23341;50.296;18.960;2023-02-12T23:15:21;88443.41;;;-144.43;100.00
37486;BME280;23341;50.296;18.960;2023-02-12T23:20:25;88443.41;;;-144.43;100.00
37486;BME280;23341;50.296;18.960;2023-02-12T23:25:29;89476.91;;;-144.43;100.00
37486;BME280;23341;50.296;18.960;2023-02-12T23:30:34;89735.34;;;-144.43;100.00
37486;BME280;23341;50.296;18.960;2023-02-12T23:35:38;89735.34;;;-144.43;100.00
37486;BME280;23341;50.296;18.960;2023-02-12T23:40:42;90510.69;;;-144.43;100.00
37486;BME280;23341;50.296;18.960;2023-02-12T23:45:47;90510.69;;;-144.43;100.00
37486;BME280;23341;50.296;18.960;2023-02-12T23:50:51;90252.22;;;-144.43;100.00
37486;BME280;23341;50.296;18.960;2023-02-12T23:55:55;90510.69;;;-144.43;100.00
